createdAt,value
2023-02-08T00:01:18.592Z,25.88
2023-02-08T00:03:47.336Z,27.27
2023-02-08T00:06:16.016Z,26.95
2023-02-08T00:08:44.746Z,27.17
2023-02-08T00:11:13.342Z,28.00
2023-02-08T00:13:43.055Z,26.45
2023-02-08T00:16:12.232Z,26.13
2023-02-08T00:18:41.801Z,25.17
2023-02-08T00:21:11.196Z,25.67
2023-02-08T00:23:39.331Z,23.87
2023-02-08T00:26:07.995Z,23.60
2023-02-08T00:28:36.278Z,23.55
2023-02-08T00:31:04.579Z,18.60
2023-02-08T00:33:32.690Z,20.23
2023-02-08T00:36:03.249Z,23.87
2023-02-08T00:38:31.651Z,24.47
2023-02-08T00:40:59.709Z,22.60
2023-02-08T00:43:27.853Z,25.40
2023-02-08T00:45:56.685Z,25.70
2023-02-08T00:48:24.725Z,24.23
2023-02-08T00:51:02.319Z,23.17
2023-02-08T00:53:30.527Z,25.03
2023-02-08T00:55:58.882Z,26.13
2023-02-08T00:58:26.960Z,21.30
2023-02-08T01:00:55.374Z,25.90
2023-02-08T01:03:24.226Z,19.67
2023-02-08T01:05:52.468Z,25.85
2023-02-08T01:08:22.249Z,25.80
2023-02-08T01:10:50.312Z,24.83
2023-02-08T01:13:18.386Z,24.03
2023-02-08T01:15:46.447Z,23.40
2023-02-08T01:18:14.512Z,27.13
2023-02-08T01:20:42.553Z,23.80
2023-02-08T01:23:10.591Z,25.50
2023-02-08T01:25:40.029Z,25.53
2023-02-08T01:28:08.142Z,24.97
2023-02-08T01:30:36.211Z,27.10
2023-02-08T01:33:04.229Z,23.70
2023-02-08T01:35:32.281Z,26.40
2023-02-08T01:38:00.324Z,24.60
2023-02-08T01:40:28.422Z,25.93
2023-02-08T01:42:57.873Z,25.83
2023-02-08T01:45:30.018Z,23.67
2023-02-08T01:48:07.742Z,25.57
2023-02-08T01:50:42.801Z,27.80
2023-02-08T01:53:11.278Z,26.47
2023-02-08T01:55:43.806Z,21.70
2023-02-08T01:58:14.352Z,28.03
2023-02-08T02:00:42.877Z,26.93
2023-02-08T02:03:11.356Z,26.85
2023-02-08T02:05:43.412Z,24.13
2023-02-08T02:08:13.072Z,28.93
2023-02-08T02:10:43.144Z,30.40
2023-02-08T02:13:15.366Z,30.37
2023-02-08T02:15:44.964Z,27.87
2023-02-08T02:18:19.218Z,27.73
2023-02-08T02:21:14.740Z,28.70
2023-02-08T02:24:22.593Z,29.33
2023-02-08T02:27:31.792Z,27.20
2023-02-08T02:30:35.210Z,26.07
2023-02-08T02:33:25.237Z,28.90
2023-02-08T02:36:01.379Z,27.47
2023-02-08T02:38:42.355Z,28.03
2023-02-08T02:41:40.878Z,27.50
2023-02-08T02:44:14.712Z,22.25
2023-02-08T02:46:48.058Z,28.60
2023-02-08T02:49:23.167Z,30.00
2023-02-08T02:51:58.861Z,31.37
2023-02-08T02:54:33.869Z,28.57
2023-02-08T02:57:06.418Z,33.30
2023-02-08T02:59:35.903Z,30.80
2023-02-08T03:02:05.006Z,29.87
2023-02-08T03:04:55.766Z,29.05
2023-02-08T03:07:43.428Z,26.57
2023-02-08T03:10:34.696Z,28.97
2023-02-08T03:13:08.676Z,28.00
2023-02-08T03:15:47.345Z,26.97
2023-02-08T03:18:25.005Z,27.10
2023-02-08T03:21:01.646Z,27.30
2023-02-08T03:23:32.025Z,29.93
2023-02-08T03:26:08.137Z,29.77
2023-02-08T03:28:42.162Z,27.90
2023-02-08T03:31:16.176Z,29.63
2023-02-08T03:33:51.250Z,27.50
2023-02-08T03:36:25.896Z,28.10
2023-02-08T03:38:55.695Z,29.13
2023-02-08T03:41:29.162Z,28.37
2023-02-08T03:44:01.387Z,27.50
2023-02-08T03:46:33.300Z,29.67
2023-02-08T03:49:05.640Z,32.13
2023-02-08T03:51:39.047Z,28.93
2023-02-08T03:54:09.994Z,27.55
2023-02-08T03:56:42.723Z,27.10
2023-02-08T03:59:16.088Z,30.35
2023-02-08T04:01:48.433Z,29.77
2023-02-08T04:04:18.699Z,31.05
2023-02-08T04:06:48.307Z,29.77
2023-02-08T04:09:16.368Z,28.48
2023-02-08T04:11:44.644Z,28.83
2023-02-08T04:14:12.726Z,30.40
2023-02-08T04:16:40.820Z,29.38
2023-02-08T04:19:08.877Z,27.25
2023-02-08T04:21:36.950Z,28.02
2023-02-08T04:24:06.759Z,27.50
2023-02-08T04:26:34.928Z,28.00
2023-02-08T04:29:03.301Z,27.95
2023-02-08T04:31:31.481Z,30.03
2023-02-08T04:33:59.909Z,28.55
2023-02-08T04:36:27.962Z,20.90
2023-02-08T04:38:56.042Z,28.83
2023-02-08T04:41:25.440Z,29.40
2023-02-08T04:46:21.352Z,27.30
2023-02-08T04:48:49.403Z,28.80
2023-02-08T04:51:17.484Z,27.15
2023-02-08T04:53:45.536Z,47.78
2023-02-08T04:56:14.517Z,39.10
2023-02-08T04:58:43.933Z,36.85
2023-02-08T05:01:12.043Z,33.50
2023-02-08T05:03:40.334Z,30.50
2023-02-08T05:06:08.829Z,29.05
2023-02-08T05:08:37.012Z,31.23
2023-02-08T05:11:05.289Z,28.95
2023-02-08T05:13:33.459Z,30.30
2023-02-08T05:16:03.059Z,32.05
2023-02-08T05:18:31.159Z,29.58
2023-02-08T05:21:01.662Z,30.70
2023-02-08T05:23:29.728Z,29.45
2023-02-08T05:25:57.797Z,29.67
2023-02-08T05:28:26.039Z,30.38
2023-02-08T05:30:54.133Z,30.75
2023-02-08T05:33:23.601Z,31.08
2023-02-08T05:35:51.675Z,28.50
2023-02-08T05:38:19.738Z,31.63
2023-02-08T05:40:48.020Z,29.27
2023-02-08T05:43:16.071Z,30.73
2023-02-08T05:45:44.098Z,32.70
2023-02-08T05:48:12.136Z,30.48
2023-02-08T05:50:41.721Z,30.73
2023-02-08T05:53:09.943Z,29.90
2023-02-08T05:55:37.997Z,31.02
2023-02-08T05:58:06.064Z,29.27
2023-02-08T06:00:34.127Z,29.05
2023-02-08T06:03:02.220Z,29.58
2023-02-08T06:05:30.452Z,28.38
2023-02-08T06:07:59.880Z,31.70
2023-02-08T06:12:55.944Z,27.88
2023-02-08T06:15:24.116Z,30.00
2023-02-08T06:17:52.610Z,30.08
2023-02-08T06:20:20.910Z,29.17
2023-02-08T06:22:48.978Z,31.10
2023-02-08T06:25:18.801Z,30.85
2023-02-08T06:27:46.883Z,30.35
2023-02-08T06:30:15.108Z,31.88
2023-02-08T06:32:43.163Z,32.95
2023-02-08T06:35:11.703Z,32.20
2023-02-08T06:37:39.785Z,31.17
2023-02-08T06:40:08.987Z,29.10
2023-02-08T06:42:38.568Z,30.92
2023-02-08T06:45:09.957Z,27.50
2023-02-08T06:47:38.676Z,30.08
2023-02-08T06:50:07.479Z,30.80
2023-02-08T06:52:35.845Z,23.70
2023-02-08T06:55:04.008Z,24.73
2023-02-08T06:57:32.081Z,30.23
2023-02-08T07:00:01.571Z,25.90
2023-02-08T07:02:29.738Z,30.25
2023-02-08T07:04:57.834Z,29.25
2023-02-08T07:07:26.131Z,30.17
2023-02-08T07:09:54.157Z,30.20
2023-02-08T07:12:22.249Z,32.97
2023-02-08T07:14:50.644Z,30.77
2023-02-08T07:17:20.054Z,25.42
2023-02-08T07:22:15.935Z,29.35
2023-02-08T07:24:44.424Z,27.48
2023-02-08T07:27:14.136Z,30.67
2023-02-08T07:29:42.318Z,29.63
2023-02-08T07:32:12.222Z,31.63
2023-02-08T07:34:41.730Z,32.05
2023-02-08T07:37:09.766Z,30.92
2023-02-08T07:39:37.857Z,30.33
2023-02-08T07:42:06.893Z,32.15
2023-02-08T07:44:34.970Z,28.90
2023-02-08T07:47:03.066Z,30.23
2023-02-08T07:49:31.269Z,31.55
2023-02-08T07:52:01.407Z,30.13
2023-02-08T07:54:29.950Z,30.90
2023-02-08T07:56:58.224Z,30.42
2023-02-08T07:59:26.373Z,30.80
2023-02-08T08:01:54.557Z,34.63
2023-02-08T08:04:22.997Z,29.90
2023-02-08T08:06:51.548Z,30.87
2023-02-08T08:09:21.401Z,30.63
2023-02-08T08:11:49.525Z,33.00
2023-02-08T08:14:17.553Z,33.00
2023-02-08T08:16:45.634Z,29.52
2023-02-08T08:19:13.716Z,31.63
2023-02-08T08:21:41.744Z,30.55
2023-02-08T08:24:09.846Z,31.05
2023-02-08T08:26:39.297Z,28.13
2023-02-08T08:31:35.476Z,30.25
2023-02-08T08:34:03.661Z,30.23
2023-02-08T08:36:31.787Z,28.98
2023-02-08T08:38:59.843Z,29.23
2023-02-08T08:41:28.525Z,29.27
2023-02-08T08:43:58.004Z,23.20
2023-02-08T08:48:54.068Z,25.85
2023-02-08T08:51:22.201Z,27.35
2023-02-08T08:53:50.301Z,26.88
2023-02-08T08:56:18.336Z,31.60
2023-02-08T08:58:46.411Z,26.17
2023-02-08T09:01:15.965Z,28.08
2023-02-08T09:03:44.064Z,31.52
2023-02-08T09:06:12.121Z,28.08
2023-02-08T09:08:40.282Z,29.20
2023-02-08T09:11:09.747Z,28.25
2023-02-08T09:16:09.386Z,27.58
2023-02-08T09:18:38.836Z,28.35
2023-02-08T09:23:35.207Z,28.20
2023-02-08T09:26:04.380Z,28.58
2023-02-08T09:28:32.512Z,27.92
2023-02-08T09:31:01.715Z,28.70
2023-02-08T09:33:29.904Z,29.40
2023-02-08T09:35:59.320Z,27.20
2023-02-08T09:38:27.582Z,27.48
2023-02-08T09:41:05.785Z,26.58
2023-02-08T09:43:43.326Z,28.75
2023-02-08T09:46:17.660Z,29.95
2023-02-08T09:48:47.636Z,28.90
2023-02-08T09:51:26.563Z,27.55
2023-02-08T09:53:58.969Z,29.10
2023-02-08T09:56:31.865Z,26.75
2023-02-08T09:59:01.891Z,28.10
2023-02-08T10:01:33.184Z,29.35
2023-02-08T10:04:03.953Z,28.15
2023-02-08T10:06:33.448Z,29.40
2023-02-08T10:11:43.357Z,27.92
2023-02-08T10:14:43.314Z,28.00
2023-02-08T10:17:40.133Z,28.52
2023-02-08T10:20:19.758Z,27.33
2023-02-08T10:23:01.218Z,28.60
2023-02-08T10:25:46.693Z,29.15
2023-02-08T10:28:31.394Z,27.23
2023-02-08T10:31:08.794Z,26.08
2023-02-08T10:33:45.312Z,28.38
2023-02-08T10:36:15.927Z,26.75
2023-02-08T10:38:47.050Z,25.60
2023-02-08T10:41:19.611Z,27.75
2023-02-08T10:43:53.075Z,27.45
2023-02-08T10:46:26.917Z,25.92
2023-02-08T10:49:04.752Z,25.58
2023-02-08T10:51:32.860Z,25.08
2023-02-08T10:54:02.475Z,24.73
2023-02-08T10:59:13.474Z,24.77
2023-02-08T11:01:41.584Z,24.17
2023-02-08T11:04:11.615Z,25.20
2023-02-08T11:06:41.238Z,22.95
2023-02-08T11:14:24.291Z,23.60
2023-02-08T11:16:53.833Z,20.58
2023-02-08T11:24:31.110Z,20.17
2023-02-08T11:26:59.648Z,22.80
2023-02-08T11:29:29.490Z,22.63
2023-02-08T11:32:00.614Z,23.38
2023-02-08T11:34:30.544Z,22.13
2023-02-08T11:37:00.302Z,21.73
2023-02-08T11:39:35.133Z,21.88
2023-02-08T11:42:04.585Z,21.25
2023-02-08T11:44:35.177Z,22.58
2023-02-08T11:47:05.604Z,21.98
2023-02-08T11:49:39.704Z,23.48
2023-02-08T11:52:19.657Z,22.17
2023-02-08T11:54:49.247Z,18.90
2023-02-08T11:59:47.573Z,19.13
2023-02-08T12:02:30.230Z,18.40
2023-02-08T12:04:59.060Z,17.58
2023-02-08T12:07:43.389Z,18.70
2023-02-08T12:10:44.525Z,14.25
2023-02-08T12:13:30.011Z,13.05
2023-02-08T12:16:10.708Z,5.40
2023-02-08T12:19:02.112Z,4.43
2023-02-08T12:21:37.216Z,6.68
2023-02-08T12:24:17.228Z,6.03
2023-02-08T12:26:59.775Z,3.92
2023-02-08T12:29:48.349Z,4.38
2023-02-08T12:32:39.775Z,3.92
2023-02-08T12:35:50.968Z,4.63
2023-02-08T12:38:54.671Z,4.47
2023-02-08T12:41:29.045Z,4.10
2023-02-08T12:44:05.940Z,4.43
2023-02-08T12:46:51.981Z,4.65
2023-02-08T12:49:50.602Z,4.03
2023-02-08T12:52:30.661Z,3.67
2023-02-08T12:55:02.882Z,3.30
2023-02-08T12:57:32.569Z,4.20
2023-02-08T13:00:07.233Z,4.25
2023-02-08T13:02:44.598Z,4.85
2023-02-08T13:05:18.827Z,3.75
2023-02-08T13:07:50.382Z,3.95
2023-02-08T13:10:26.836Z,3.97
2023-02-08T13:12:58.148Z,4.38
2023-02-08T13:15:37.338Z,4.57
2023-02-08T13:18:12.981Z,4.53
2023-02-08T13:20:44.130Z,5.20
2023-02-08T13:23:19.526Z,4.75
2023-02-08T13:25:50.876Z,5.20
2023-02-08T13:28:21.767Z,5.70
2023-02-08T13:30:57.859Z,5.47
2023-02-08T13:33:33.725Z,5.13
2023-02-08T13:36:02.299Z,5.20
2023-02-08T13:38:34.768Z,5.53
2023-02-08T13:41:09.396Z,5.40
2023-02-08T13:43:42.166Z,6.00
2023-02-08T13:46:12.657Z,7.18
2023-02-08T13:48:49.874Z,6.90
2023-02-08T13:51:58.572Z,7.70
2023-02-08T13:54:27.135Z,7.13
2023-02-08T13:56:56.080Z,7.22
2023-02-08T13:59:35.992Z,7.38
2023-02-08T14:02:29.144Z,8.77
2023-02-08T14:05:36.778Z,6.63
2023-02-08T14:08:07.411Z,6.60
2023-02-08T14:10:41.953Z,5.68
2023-02-08T14:13:24.740Z,6.80
2023-02-08T14:16:25.965Z,7.03
2023-02-08T14:18:57.401Z,6.47
2023-02-08T14:21:33.047Z,6.95
2023-02-08T14:24:03.955Z,6.47
2023-02-08T14:26:32.429Z,8.20
2023-02-08T14:29:03.288Z,9.10
2023-02-08T14:31:42.910Z,8.30
2023-02-08T14:34:34.973Z,9.38
2023-02-08T14:37:07.124Z,8.90
2023-02-08T14:39:37.288Z,8.98
2023-02-08T14:42:08.715Z,9.98
2023-02-08T14:45:05.571Z,9.57
2023-02-08T14:47:55.078Z,9.60
2023-02-08T14:53:02.178Z,9.55
2023-02-08T14:55:33.899Z,12.07
2023-02-08T14:58:02.756Z,12.27
2023-02-08T15:00:35.114Z,14.25
2023-02-08T15:03:05.220Z,16.25
2023-02-08T15:05:44.440Z,16.70
2023-02-08T15:10:45.103Z,16.63
2023-02-08T15:13:20.982Z,16.10
2023-02-08T15:15:53.924Z,16.67
2023-02-08T15:18:24.756Z,17.17
2023-02-08T15:21:04.342Z,16.85
2023-02-08T15:23:33.001Z,16.55
2023-02-08T15:26:03.640Z,17.42
2023-02-08T15:28:34.725Z,17.10
2023-02-08T15:31:06.097Z,15.73
2023-02-08T15:33:34.892Z,15.60
2023-02-08T15:36:08.363Z,16.02
2023-02-08T15:38:39.519Z,16.48
2023-02-08T15:41:09.496Z,17.00
2023-02-08T15:43:38.850Z,15.63
2023-02-08T15:46:08.642Z,15.15
2023-02-08T15:48:38.896Z,15.85
2023-02-08T15:51:11.380Z,15.75
2023-02-08T15:53:41.892Z,14.82
2023-02-08T15:56:12.407Z,13.82
2023-02-08T15:58:44.762Z,14.77
2023-02-08T16:01:19.442Z,15.32
2023-02-08T16:03:50.310Z,14.68
2023-02-08T16:06:24.766Z,14.20
2023-02-08T16:08:54.570Z,13.15
2023-02-08T16:11:24.950Z,15.63
2023-02-08T16:13:55.704Z,14.10
2023-02-08T16:16:27.331Z,14.27
2023-02-08T16:19:00.149Z,15.38
2023-02-08T16:21:33.969Z,14.93
2023-02-08T16:24:08.922Z,15.13
2023-02-08T16:26:42.792Z,15.23
2023-02-08T16:29:19.721Z,14.50
2023-02-08T16:31:49.534Z,14.80
2023-02-08T16:34:19.884Z,16.85
2023-02-08T16:36:51.725Z,14.25
2023-02-08T16:39:53.893Z,14.90
2023-02-08T16:42:33.821Z,16.55
2023-02-08T16:45:24.678Z,15.32
2023-02-08T16:47:54.676Z,15.15
2023-02-08T16:50:24.314Z,17.48
2023-02-08T16:52:56.360Z,16.67
2023-02-08T16:55:27.162Z,18.08
2023-02-08T16:57:57.397Z,17.55
2023-02-08T17:00:27.591Z,17.58
2023-02-08T17:02:56.712Z,20.40
2023-02-08T17:05:27.600Z,18.10
2023-02-08T17:07:57.926Z,18.30
2023-02-08T17:10:29.045Z,19.33
2023-02-08T17:13:17.109Z,18.00
2023-02-08T17:15:46.538Z,19.27
2023-02-08T17:18:15.345Z,17.63
2023-02-08T17:20:44.160Z,18.73
2023-02-08T17:23:15.390Z,16.77
2023-02-08T17:25:43.924Z,16.45
2023-02-08T17:28:17.454Z,14.15
2023-02-08T17:30:46.830Z,18.45
2023-02-08T17:35:48.232Z,19.25
2023-02-08T17:38:18.003Z,18.77
2023-02-08T17:40:46.786Z,16.35
2023-02-08T17:43:15.216Z,17.83
2023-02-08T17:45:45.119Z,18.93
2023-02-08T17:48:14.343Z,18.27
2023-02-08T17:50:45.088Z,17.90
2023-02-08T17:53:13.759Z,17.10
2023-02-08T17:55:44.427Z,17.20
2023-02-08T17:58:13.106Z,16.00
2023-02-08T18:00:41.675Z,19.53
2023-02-08T18:03:09.787Z,17.43
2023-02-08T18:05:37.992Z,18.55
2023-02-08T18:08:06.533Z,17.27
2023-02-08T18:10:34.623Z,18.50
2023-02-08T18:13:04.159Z,17.02
2023-02-08T18:15:32.281Z,19.08
2023-02-08T18:18:00.384Z,17.55
2023-02-08T18:20:28.655Z,18.48
2023-02-08T18:22:56.723Z,17.48
2023-02-08T18:25:24.872Z,18.52
2023-02-08T18:27:53.037Z,16.83
2023-02-08T18:30:22.885Z,16.67
2023-02-08T18:32:50.986Z,18.45
2023-02-08T18:35:19.159Z,17.35
2023-02-08T18:37:49.513Z,15.35
2023-02-08T18:40:18.450Z,17.67
2023-02-08T18:42:46.530Z,11.85
2023-02-08T18:45:14.708Z,15.80
2023-02-08T18:47:44.191Z,17.20
2023-02-08T18:52:40.278Z,14.48
2023-02-08T18:55:08.791Z,16.75
2023-02-08T18:57:38.888Z,16.30
2023-02-08T19:00:08.074Z,17.15
2023-02-08T19:02:38.006Z,16.25
2023-02-08T19:05:09.044Z,16.48
2023-02-08T19:07:38.748Z,16.90
2023-02-08T19:10:07.998Z,16.20
2023-02-08T19:12:37.612Z,15.68
2023-02-08T19:15:06.342Z,16.50
2023-02-08T19:17:34.420Z,14.18
2023-02-08T19:20:02.463Z,17.65
2023-02-08T19:22:31.873Z,15.95
2023-02-08T19:27:27.880Z,15.23
2023-02-08T19:29:56.450Z,15.98
2023-02-08T19:32:24.729Z,15.30
2023-02-08T19:34:52.769Z,16.10
2023-02-08T19:37:20.891Z,16.77
2023-02-08T19:39:50.356Z,15.68
2023-02-08T19:42:18.497Z,15.52
2023-02-08T19:44:46.569Z,16.63
2023-02-08T19:47:14.607Z,15.63
2023-02-08T19:49:42.710Z,17.08
2023-02-08T19:52:10.766Z,17.27
2023-02-08T19:54:38.854Z,15.40
2023-02-08T19:57:11.699Z,16.17
2023-02-08T19:59:39.864Z,17.65
2023-02-08T20:02:08.513Z,15.57
2023-02-08T20:04:36.611Z,12.93
2023-02-08T20:07:05.700Z,16.00
2023-02-08T20:09:34.786Z,17.23
2023-02-08T20:12:03.101Z,15.20
2023-02-08T20:14:33.919Z,15.32
2023-02-08T20:17:03.006Z,15.57
2023-02-08T20:19:31.286Z,15.30
2023-02-08T20:21:59.401Z,12.88
2023-02-08T20:24:27.559Z,14.05
2023-02-08T20:26:55.710Z,13.77
2023-02-08T20:29:23.798Z,13.20
2023-02-08T20:31:55.710Z,14.23
2023-02-08T20:34:24.229Z,14.35
2023-02-08T20:37:06.207Z,15.13
2023-02-08T20:39:35.374Z,14.00
2023-02-08T20:42:03.472Z,14.00
2023-02-08T20:44:32.440Z,14.05
2023-02-08T20:47:02.178Z,15.93
2023-02-08T20:49:32.129Z,14.43
2023-02-08T20:52:00.455Z,14.20
2023-02-08T20:54:28.603Z,13.18
2023-02-08T20:56:56.719Z,13.43
2023-02-08T20:59:24.937Z,13.57
2023-02-08T21:01:53.304Z,13.80
2023-02-08T21:04:23.819Z,13.83
2023-02-08T21:06:52.545Z,13.85
2023-02-08T21:09:21.083Z,13.32
2023-02-08T21:11:50.126Z,14.98
2023-02-08T21:14:20.877Z,14.40
2023-02-08T21:16:51.089Z,13.15
2023-02-08T21:19:20.444Z,14.23
2023-02-08T21:24:20.121Z,15.73
2023-02-08T21:26:48.263Z,14.25
2023-02-08T21:29:16.482Z,14.35
2023-02-08T21:31:44.787Z,16.17
2023-02-08T21:34:13.845Z,16.03
2023-02-08T21:36:42.000Z,17.05
2023-02-08T21:39:11.416Z,16.38
2023-02-08T21:44:08.299Z,15.68
2023-02-08T21:46:37.302Z,16.17
2023-02-08T21:49:22.881Z,16.63
2023-02-08T21:52:08.528Z,16.95
2023-02-08T21:54:44.458Z,16.42
2023-02-08T21:57:18.595Z,16.92
2023-02-08T21:59:48.111Z,16.95
2023-02-08T22:02:21.562Z,17.85
2023-02-08T22:05:07.749Z,17.95
2023-02-08T22:07:43.236Z,19.05
2023-02-08T22:10:15.443Z,17.77
2023-02-08T22:12:43.608Z,18.20
2023-02-08T22:15:13.770Z,18.13
2023-02-08T22:17:41.914Z,19.00
2023-02-08T22:20:11.641Z,17.77
2023-02-08T22:22:39.902Z,19.20
2023-02-08T22:25:08.303Z,17.75
2023-02-08T22:27:39.098Z,13.17
2023-02-08T22:30:08.673Z,18.98
2023-02-08T22:32:40.008Z,18.40
2023-02-08T22:35:08.533Z,18.58
2023-02-08T22:37:37.242Z,14.48
2023-02-08T22:40:06.606Z,18.00
2023-02-08T22:45:04.085Z,17.42
2023-02-08T22:47:32.241Z,17.13
2023-02-08T22:50:01.060Z,18.80
2023-02-08T22:52:30.362Z,18.13
2023-02-08T22:55:02.332Z,18.45
2023-02-08T22:57:30.562Z,17.38
2023-02-08T22:59:58.688Z,17.73
2023-02-08T23:02:28.308Z,18.63
2023-02-08T23:04:56.578Z,17.85
2023-02-08T23:07:24.701Z,19.40
2023-02-08T23:09:52.796Z,17.55
2023-02-08T23:12:20.857Z,19.08
2023-02-08T23:14:49.697Z,19.48
2023-02-08T23:17:17.853Z,19.75
2023-02-08T23:19:47.323Z,20.20
2023-02-08T23:24:43.213Z,18.02
2023-02-08T23:27:11.482Z,19.13
2023-02-08T23:29:39.551Z,18.83
2023-02-08T23:32:07.708Z,19.65
2023-02-08T23:34:35.979Z,20.80
2023-02-08T23:37:05.373Z,20.67
2023-02-08T23:42:02.185Z,18.25
2023-02-08T23:44:30.261Z,19.13
2023-02-08T23:46:58.554Z,19.70
2023-02-08T23:49:26.681Z,21.00
2023-02-08T23:51:54.764Z,21.02
2023-02-08T23:54:24.215Z,21.35
2023-02-08T23:59:21.119Z,15.68
